createdAt,value
2022-12-03T00:01:28.824Z,34.42
2022-12-03T00:04:33.584Z,33.57
2022-12-03T00:07:38.361Z,33.10
2022-12-03T00:10:44.704Z,34.22
2022-12-03T00:13:48.372Z,36.17
2022-12-03T00:16:52.000Z,35.50
2022-12-03T00:19:55.309Z,35.83
2022-12-03T00:22:58.248Z,39.22
2022-12-03T00:26:00.674Z,34.40
2022-12-03T00:29:03.896Z,30.98
2022-12-03T00:32:07.496Z,34.22
2022-12-03T00:35:11.084Z,35.10
2022-12-03T00:38:14.770Z,33.05
2022-12-03T00:41:17.507Z,36.90
2022-12-03T00:44:20.312Z,32.30
2022-12-03T00:47:23.341Z,39.83
2022-12-03T00:50:26.013Z,33.73
2022-12-03T00:53:28.872Z,36.40
2022-12-03T00:56:31.318Z,35.50
2022-12-03T00:59:34.563Z,36.72
2022-12-03T01:02:37.184Z,37.95
2022-12-03T01:05:40.448Z,31.87
2022-12-03T01:08:44.625Z,37.65
2022-12-03T01:11:47.462Z,34.17
2022-12-03T01:14:50.776Z,35.65
2022-12-03T01:17:54.407Z,37.83
2022-12-03T01:20:57.143Z,37.40
2022-12-03T01:24:00.586Z,35.13
2022-12-03T01:27:03.104Z,38.22
2022-12-03T01:30:07.731Z,38.15
2022-12-03T01:33:10.493Z,31.55
2022-12-03T01:36:13.806Z,35.80
2022-12-03T01:39:16.664Z,35.25
2022-12-03T01:42:45.878Z,36.00
2022-12-03T01:45:48.338Z,39.75
2022-12-03T01:48:56.080Z,33.58
2022-12-03T01:51:59.286Z,36.47
2022-12-03T01:55:06.068Z,34.10
2022-12-03T01:58:12.875Z,40.35
2022-12-03T02:01:18.414Z,38.90
2022-12-03T02:04:23.646Z,36.88
2022-12-03T02:07:32.614Z,34.07
2022-12-03T02:10:37.916Z,37.17
2022-12-03T02:13:41.346Z,37.63
2022-12-03T02:16:45.946Z,36.08
2022-12-03T02:19:49.648Z,35.90
2022-12-03T02:22:55.274Z,36.90
2022-12-03T02:25:58.436Z,33.72
2022-12-03T02:29:02.580Z,36.78
2022-12-03T02:32:05.811Z,35.72
2022-12-03T02:35:17.080Z,40.38
2022-12-03T02:38:26.119Z,34.77
2022-12-03T02:41:49.085Z,38.60
2022-12-03T02:44:53.102Z,32.08
2022-12-03T02:48:00.472Z,36.00
2022-12-03T02:51:07.936Z,35.17
2022-12-03T02:54:11.977Z,38.00
2022-12-03T02:57:16.778Z,36.03
2022-12-03T03:00:20.214Z,36.35
2022-12-03T03:03:26.926Z,37.55
2022-12-03T03:06:29.637Z,33.03
2022-12-03T03:09:33.905Z,34.67
2022-12-03T03:12:39.450Z,34.55
2022-12-03T03:15:44.558Z,38.65
2022-12-03T03:18:48.945Z,32.03
2022-12-03T03:21:53.629Z,36.47
2022-12-03T03:24:56.528Z,38.08
2022-12-03T03:27:59.579Z,43.70
2022-12-03T03:31:05.058Z,41.10
2022-12-03T03:34:09.611Z,38.67
2022-12-03T03:37:12.780Z,36.50
2022-12-03T03:40:16.033Z,44.33
2022-12-03T03:43:21.721Z,38.88
2022-12-03T03:46:25.319Z,39.45
2022-12-03T03:49:29.763Z,42.83
2022-12-03T03:52:33.039Z,35.40
2022-12-03T03:55:39.415Z,42.85
2022-12-03T03:58:42.967Z,39.08
2022-12-03T04:01:46.395Z,41.42
2022-12-03T04:04:50.319Z,42.15
2022-12-03T04:07:54.243Z,36.53
2022-12-03T04:11:16.028Z,44.53
2022-12-03T04:14:18.434Z,34.55
2022-12-03T04:17:22.570Z,37.25
2022-12-03T04:20:25.512Z,44.08
2022-12-03T04:23:31.005Z,42.97
2022-12-03T04:26:52.905Z,38.17
2022-12-03T04:29:56.210Z,43.25
2022-12-03T04:33:18.283Z,44.85
2022-12-03T04:36:25.925Z,40.97
2022-12-03T04:39:29.130Z,33.67
2022-12-03T04:42:33.560Z,38.10
2022-12-03T04:45:36.438Z,35.53
2022-12-03T04:48:40.867Z,40.42
2022-12-03T04:51:44.249Z,40.03
2022-12-03T04:54:47.410Z,42.72
2022-12-03T04:57:50.765Z,41.65
2022-12-03T05:00:53.762Z,32.45
2022-12-03T05:03:56.345Z,37.57
2022-12-03T05:07:00.837Z,40.03
2022-12-03T05:10:08.587Z,44.25
2022-12-03T05:13:13.837Z,40.80
2022-12-03T05:16:18.142Z,40.75
2022-12-03T05:19:42.069Z,42.17
2022-12-03T05:22:45.657Z,42.08
2022-12-03T05:25:48.701Z,39.40
2022-12-03T05:28:51.346Z,36.15
2022-12-03T05:31:56.775Z,46.72
2022-12-03T05:34:59.968Z,45.30
2022-12-03T05:38:03.135Z,45.40
2022-12-03T05:41:26.062Z,43.13
2022-12-03T05:44:29.409Z,44.25
2022-12-03T05:47:32.054Z,48.25
2022-12-03T05:50:38.038Z,42.80
2022-12-03T05:53:49.762Z,43.20
2022-12-03T05:56:52.738Z,46.95
2022-12-03T05:59:55.981Z,43.97
2022-12-03T06:03:00.843Z,46.42
2022-12-03T06:06:05.273Z,43.55
2022-12-03T06:09:09.713Z,40.92
2022-12-03T06:12:13.237Z,48.15
2022-12-03T06:15:26.625Z,48.30
2022-12-03T06:18:33.071Z,46.63
2022-12-03T06:21:36.613Z,40.97
2022-12-03T06:24:41.066Z,44.58
2022-12-03T06:27:44.873Z,47.13
2022-12-03T06:30:48.701Z,44.53
2022-12-03T06:33:53.573Z,45.87
2022-12-03T06:36:57.962Z,47.28
2022-12-03T06:40:06.553Z,52.97
2022-12-03T06:43:11.994Z,47.17
2022-12-03T06:46:26.705Z,57.40
2022-12-03T06:49:30.459Z,49.93
2022-12-03T06:52:35.729Z,55.92
2022-12-03T06:55:41.094Z,56.03
2022-12-03T06:58:48.955Z,54.70
2022-12-03T07:01:53.588Z,48.83
2022-12-03T07:04:57.425Z,46.23
2022-12-03T07:08:03.686Z,53.45
2022-12-03T07:11:31.737Z,47.88
2022-12-03T07:14:41.285Z,47.03
2022-12-03T07:17:52.050Z,44.83
2022-12-03T07:20:55.843Z,45.47
2022-12-03T07:24:00.056Z,50.40
2022-12-03T07:27:06.108Z,53.60
2022-12-03T07:30:15.550Z,47.72
2022-12-03T07:33:32.523Z,48.58
2022-12-03T07:36:45.847Z,49.63
2022-12-03T07:39:58.527Z,49.55
2022-12-03T07:43:09.542Z,51.45
2022-12-03T07:46:13.879Z,47.55
2022-12-03T07:49:20.333Z,49.83
2022-12-03T07:52:26.096Z,52.77
2022-12-03T07:55:48.411Z,42.83
2022-12-03T07:58:57.991Z,55.33
2022-12-03T08:02:16.813Z,45.75
2022-12-03T08:05:26.923Z,47.03
2022-12-03T08:08:38.029Z,48.27
2022-12-03T08:11:45.267Z,47.75
2022-12-03T08:14:57.759Z,36.63
2022-12-03T08:18:27.894Z,45.85
2022-12-03T08:21:36.572Z,49.92
2022-12-03T08:24:39.999Z,40.87
2022-12-03T08:27:44.675Z,53.87
2022-12-03T08:31:14.592Z,53.03
2022-12-03T08:34:22.633Z,48.30
2022-12-03T08:37:30.335Z,41.30
2022-12-03T08:40:37.593Z,50.40
2022-12-03T08:43:50.404Z,50.12
2022-12-03T08:47:03.471Z,51.83
2022-12-03T08:50:41.597Z,50.08
2022-12-03T08:53:48.885Z,47.60
2022-12-03T08:57:01.898Z,53.63
2022-12-03T09:00:21.546Z,52.78
2022-12-03T09:03:34.013Z,52.03
2022-12-03T09:06:51.762Z,47.45
2022-12-03T09:10:05.731Z,45.63
2022-12-03T09:13:19.710Z,49.17
2022-12-03T09:16:23.928Z,46.75
2022-12-03T09:19:34.774Z,49.60
2022-12-03T09:22:38.898Z,53.83
2022-12-03T09:25:52.215Z,43.63
2022-12-03T09:28:55.824Z,46.13
2022-12-03T09:32:15.116Z,46.75
2022-12-03T09:35:26.530Z,42.62
2022-12-03T09:38:32.597Z,42.22
2022-12-03T09:41:51.985Z,48.30
2022-12-03T09:44:57.177Z,51.83
2022-12-03T09:48:03.906Z,46.72
2022-12-03T09:51:09.605Z,51.30
2022-12-03T09:54:24.801Z,50.85
2022-12-03T09:57:38.385Z,48.07
2022-12-03T10:00:47.523Z,46.90
2022-12-03T10:03:51.760Z,53.72
2022-12-03T10:06:57.720Z,50.27
2022-12-03T10:10:08.646Z,50.25
2022-12-03T10:13:37.297Z,46.28
2022-12-03T10:16:41.575Z,43.83
2022-12-03T10:20:18.812Z,48.13
2022-12-03T10:23:28.645Z,40.10
2022-12-03T10:26:41.826Z,46.70
2022-12-03T10:29:58.640Z,46.65
2022-12-03T10:33:18.876Z,46.78
2022-12-03T10:36:34.845Z,46.75
2022-12-03T10:40:00.289Z,44.10
2022-12-03T10:43:20.172Z,44.67
2022-12-03T10:46:33.079Z,48.13
2022-12-03T10:49:41.811Z,50.55
2022-12-03T10:52:49.563Z,46.20
2022-12-03T10:56:09.472Z,40.93
2022-12-03T10:59:19.584Z,35.28
2022-12-03T11:02:29.677Z,36.97
2022-12-03T11:05:33.874Z,32.53
2022-12-03T11:08:41.529Z,39.22
2022-12-03T11:11:48.541Z,36.40
2022-12-03T11:14:57.969Z,35.72
2022-12-03T11:18:02.890Z,35.28
2022-12-03T11:21:09.826Z,36.50
2022-12-03T11:24:21.015Z,38.20
2022-12-03T11:27:32.563Z,36.90
2022-12-03T11:30:51.345Z,38.45
2022-12-03T11:34:21.559Z,32.50
2022-12-03T11:37:31.592Z,32.13
2022-12-03T11:40:39.377Z,36.45
2022-12-03T11:44:00.450Z,31.90
2022-12-03T11:47:17.729Z,32.67
2022-12-03T11:50:57.727Z,32.10
2022-12-03T11:54:09.498Z,26.67
2022-12-03T11:57:28.319Z,33.45
2022-12-03T12:00:35.810Z,28.97
2022-12-03T12:03:49.047Z,29.83
2022-12-03T12:07:01.681Z,30.25
2022-12-03T12:10:42.445Z,28.60
2022-12-03T12:13:55.554Z,29.83
2022-12-03T12:17:03.322Z,24.63
2022-12-03T12:20:23.728Z,28.40
2022-12-03T12:23:29.617Z,28.30
2022-12-03T12:26:50.660Z,29.20
2022-12-03T12:30:13.674Z,29.77
2022-12-03T12:33:29.372Z,29.10
2022-12-03T12:36:51.423Z,27.08
2022-12-03T12:40:03.819Z,30.20
2022-12-03T12:43:15.530Z,33.60
2022-12-03T12:46:47.376Z,26.67
2022-12-03T12:49:58.595Z,31.20
2022-12-03T12:53:12.788Z,31.20
2022-12-03T12:56:25.834Z,27.60
2022-12-03T12:59:36.601Z,29.05
2022-12-03T13:02:50.752Z,30.30
2022-12-03T13:06:05.400Z,26.90
2022-12-03T13:09:31.276Z,32.35
2022-12-03T13:12:44.708Z,33.80
2022-12-03T13:16:05.394Z,25.02
2022-12-03T13:19:22.425Z,26.42
2022-12-03T13:22:26.100Z,27.43
2022-12-03T13:25:59.297Z,41.28
2022-12-03T13:29:07.406Z,35.58
2022-12-03T13:32:29.395Z,28.87
2022-12-03T13:35:41.525Z,31.58
2022-12-03T13:38:50.448Z,21.37
2022-12-03T13:42:14.630Z,28.92
2022-12-03T13:45:37.222Z,26.05
2022-12-03T13:48:43.364Z,31.12
2022-12-03T13:51:47.444Z,29.75
2022-12-03T13:54:59.746Z,32.20
2022-12-03T13:58:10.881Z,32.25
2022-12-03T14:01:24.024Z,27.17
2022-12-03T14:04:31.990Z,26.98
2022-12-03T14:07:47.843Z,27.98
2022-12-03T14:10:55.569Z,29.97
2022-12-03T14:14:02.161Z,24.48
2022-12-03T14:17:07.853Z,25.37
2022-12-03T14:20:16.505Z,30.88
2022-12-03T14:23:20.874Z,30.73
2022-12-03T14:26:30.479Z,30.07
2022-12-03T14:29:34.991Z,30.67
2022-12-03T14:32:39.699Z,36.65
2022-12-03T14:35:45.033Z,29.58
2022-12-03T14:39:02.635Z,33.10
2022-12-03T14:42:15.453Z,32.60
2022-12-03T14:45:28.585Z,31.12
2022-12-03T14:48:42.002Z,31.87
2022-12-03T14:51:47.315Z,32.65
2022-12-03T14:54:57.633Z,34.90
2022-12-03T14:58:04.582Z,35.77
2022-12-03T15:01:13.723Z,30.37
2022-12-03T15:04:23.403Z,35.25
2022-12-03T15:07:34.776Z,34.03
2022-12-03T15:10:43.675Z,34.03
2022-12-03T15:13:48.461Z,34.53
2022-12-03T15:16:55.219Z,40.22
2022-12-03T15:20:12.644Z,43.85
2022-12-03T15:23:22.486Z,38.40
2022-12-03T15:26:33.496Z,39.83
2022-12-03T15:29:37.688Z,41.03
2022-12-03T15:32:56.356Z,35.72
2022-12-03T15:36:06.202Z,37.40
2022-12-03T15:39:10.754Z,39.63
2022-12-03T15:42:23.403Z,42.67
2022-12-03T15:45:27.540Z,38.77
2022-12-03T15:48:30.638Z,39.75
2022-12-03T15:51:34.392Z,37.40
2022-12-03T15:54:42.477Z,34.65
2022-12-03T15:57:49.349Z,39.65
2022-12-03T16:00:52.904Z,36.70
2022-12-03T16:03:58.086Z,41.37
2022-12-03T16:07:10.736Z,41.08
2022-12-03T16:10:26.039Z,41.17
2022-12-03T16:13:36.624Z,39.88
2022-12-03T16:16:48.751Z,44.20
2022-12-03T16:19:56.832Z,48.90
2022-12-03T16:23:00.180Z,58.42
2022-12-03T16:26:04.554Z,56.85
2022-12-03T16:29:15.243Z,55.65
2022-12-03T16:32:32.417Z,46.60
2022-12-03T16:35:38.108Z,42.50
2022-12-03T16:38:43.676Z,40.35
2022-12-03T16:41:54.448Z,38.30
2022-12-03T16:45:12.463Z,39.53
2022-12-03T16:48:23.608Z,39.47
2022-12-03T16:51:30.398Z,37.17
2022-12-03T16:54:43.553Z,39.03
2022-12-03T16:57:46.461Z,39.63
2022-12-03T17:00:58.166Z,37.13
2022-12-03T17:04:15.635Z,39.57
2022-12-03T17:07:22.655Z,41.45
2022-12-03T17:10:28.736Z,42.00
2022-12-03T17:13:35.204Z,42.45
2022-12-03T17:16:52.579Z,40.65
2022-12-03T17:19:58.582Z,43.07
2022-12-03T17:23:04.524Z,44.35
2022-12-03T17:26:15.359Z,46.22
2022-12-03T17:29:37.535Z,44.97
2022-12-03T17:32:50.498Z,46.85
2022-12-03T17:35:58.620Z,45.07
2022-12-03T17:39:05.674Z,46.00
2022-12-03T17:42:12.671Z,53.83
2022-12-03T17:45:17.752Z,53.25
2022-12-03T17:48:21.463Z,51.10
2022-12-03T17:51:31.521Z,51.47
2022-12-03T17:55:08.390Z,55.28
2022-12-03T17:58:06.045Z,54.20
2022-12-03T18:01:22.474Z,50.33
2022-12-03T18:04:33.574Z,47.97
2022-12-03T18:07:43.671Z,51.10
2022-12-03T18:10:53.528Z,51.95
2022-12-03T18:14:11.439Z,48.95
2022-12-03T18:17:24.448Z,54.20
2022-12-03T18:20:35.118Z,50.65
2022-12-03T18:23:51.387Z,52.87
2022-12-03T18:27:01.855Z,53.13
2022-12-03T18:30:08.804Z,53.65
2022-12-03T18:33:16.367Z,49.33
2022-12-03T18:36:25.477Z,53.63
2022-12-03T18:39:42.430Z,56.60
2022-12-03T18:42:49.636Z,58.10
2022-12-03T18:46:04.591Z,59.72
2022-12-03T18:49:16.025Z,52.30
2022-12-03T18:52:22.599Z,51.88
2022-12-03T18:55:37.409Z,52.87
2022-12-03T18:58:44.649Z,47.80
2022-12-03T19:01:49.619Z,58.90
2022-12-03T19:04:56.489Z,59.88
2022-12-03T19:08:18.594Z,54.22
2022-12-03T19:11:30.719Z,51.47
2022-12-03T19:14:57.313Z,48.78
2022-12-03T19:18:01.412Z,50.42
2022-12-03T19:21:09.334Z,50.67
2022-12-03T19:24:24.291Z,55.95
2022-12-03T19:27:38.414Z,49.20
2022-12-03T19:30:46.532Z,53.92
2022-12-03T19:33:59.627Z,54.90
2022-12-03T19:37:14.290Z,57.00
2022-12-03T19:40:25.445Z,56.00
2022-12-03T19:43:39.311Z,49.77
2022-12-03T19:46:54.454Z,52.03
2022-12-03T19:49:59.141Z,53.92
2022-12-03T19:53:17.568Z,60.47
2022-12-03T19:56:20.982Z,52.83
2022-12-03T19:59:39.451Z,59.73
2022-12-03T20:02:50.460Z,62.75
2022-12-03T20:06:11.418Z,63.63
2022-12-03T20:09:18.106Z,66.87
2022-12-03T20:12:25.393Z,71.30
2022-12-03T20:15:32.469Z,64.97
2022-12-03T20:18:37.597Z,65.12
2022-12-03T20:22:02.540Z,61.63
2022-12-03T20:25:21.452Z,63.20
2022-12-03T20:28:30.426Z,65.78
2022-12-03T20:31:42.508Z,70.03
2022-12-03T20:34:57.417Z,82.95
2022-12-03T20:38:01.557Z,106.25
2022-12-03T20:41:17.305Z,107.87
2022-12-03T20:44:24.502Z,82.43
2022-12-03T20:47:37.547Z,69.33
2022-12-03T20:50:42.232Z,64.97
2022-12-03T20:53:53.408Z,67.45
2022-12-03T20:57:11.318Z,64.18
2022-12-03T21:00:16.371Z,67.12
2022-12-03T21:03:30.300Z,61.00
2022-12-03T21:06:42.320Z,62.35
2022-12-03T21:09:51.653Z,60.67
2022-12-03T21:12:56.449Z,61.78
2022-12-03T21:16:07.838Z,66.82
2022-12-03T21:19:20.492Z,86.40
2022-12-03T21:22:24.349Z,69.12
2022-12-03T21:25:31.934Z,63.53
2022-12-03T21:28:46.444Z,58.47
2022-12-03T21:31:57.327Z,55.25
2022-12-03T21:35:00.674Z,52.77
2022-12-03T21:38:08.623Z,53.40
2022-12-03T21:41:15.787Z,53.87
2022-12-03T21:44:27.521Z,51.05
2022-12-03T21:47:37.458Z,48.65
2022-12-03T21:50:41.602Z,54.33
2022-12-03T21:53:46.921Z,52.53
2022-12-03T21:56:54.299Z,43.55
2022-12-03T21:59:57.987Z,36.85
2022-12-03T22:03:02.909Z,49.95
2022-12-03T22:06:09.446Z,49.43
2022-12-03T22:09:24.831Z,45.88
2022-12-03T22:12:32.829Z,47.80
2022-12-03T22:15:38.881Z,53.78
2022-12-03T22:18:43.733Z,48.83
2022-12-03T22:21:47.711Z,54.87
2022-12-03T22:24:55.387Z,51.28
2022-12-03T22:28:00.770Z,53.60
2022-12-03T22:31:09.837Z,50.58
2022-12-03T22:34:13.156Z,52.42
2022-12-03T22:37:17.836Z,49.93
2022-12-03T22:40:21.722Z,52.70
2022-12-03T22:43:25.557Z,50.65
2022-12-03T22:46:29.604Z,49.92
2022-12-03T22:49:33.123Z,55.22
2022-12-03T22:52:37.872Z,53.17
2022-12-03T22:55:42.705Z,49.67
2022-12-03T22:58:47.078Z,50.42
2022-12-03T23:01:51.825Z,55.10
2022-12-03T23:04:57.499Z,55.50
2022-12-03T23:08:00.711Z,51.20
2022-12-03T23:11:05.890Z,51.95
2022-12-03T23:14:08.980Z,49.83
2022-12-03T23:17:11.622Z,51.75
2022-12-03T23:20:15.049Z,49.45
2022-12-03T23:23:26.192Z,54.83
2022-12-03T23:26:29.912Z,48.65
2022-12-03T23:29:36.258Z,52.75
2022-12-03T23:32:42.598Z,51.90
2022-12-03T23:35:55.563Z,55.00
2022-12-03T23:39:00.801Z,53.83
2022-12-03T23:42:04.477Z,50.10
2022-12-03T23:45:08.021Z,49.17
2022-12-03T23:48:11.439Z,54.15
2022-12-03T23:51:17.493Z,52.17
2022-12-03T23:54:20.010Z,49.30
2022-12-03T23:57:23.023Z,52.62
